Time;durP1;ratioP1;P1;durP2;ratioP2;P2;SDS_P1;SDS_P2;PMS_P1;PMS_P2;Temp;Humidity;BMP_temperature;BMP_pressure;BME280_temperature;BME280_humidity;BME280_pressure;Samples;Min_cycle;Max_cycle;Signal;HPM_P1;HPM_P2
2022/09/04 00:01:40;;;;;;;4.80;1.20;;;;;;;10.16;75.25;100748.60;105134;1273;59346;-76
2022/09/04 00:05:41;;;;;;;6.30;1.60;;;;;;;10.13;75.17;100751.63;104935;1274;61055;-76
2022/09/04 00:09:06;;;;;;;6.10;1.60;;;;;;;10.10;75.72;100745.29;104472;1281;70217;-76
2022/09/04 00:12:04;;;;;;;5.70;1.50;;;;;;;10.11;75.19;100744.66;104316;1281;68367;-78
2022/09/04 00:15:32;;;;;;;5.50;1.60;;;;;;;10.14;75.03;100743.22;104067;1281;73293;-77
2022/09/04 00:18:36;;;;;;;5.80;1.60;;;;;;;10.17;74.91;100749.41;104274;1281;59303;-76
2022/09/04 00:21:42;;;;;;;5.40;1.60;;;;;;;10.17;75.04;100747.27;104460;1281;60664;-76
2022/09/04 00:24:47;;;;;;;6.60;1.60;;;;;;;10.18;75.14;100752.73;104380;1281;70350;-76
2022/09/04 00:27:44;;;;;;;7.30;1.70;;;;;;;10.16;75.11;100755.33;104585;1281;69958;-75
2022/09/04 00:30:39;;;;;;;5.30;1.50;;;;;;;10.11;75.01;100754.23;104115;1281;73092;-77
2022/09/04 00:34:11;;;;;;;5.30;1.80;;;;;;;10.09;75.27;100750.96;103332;1281;1002934;-77
2022/09/04 00:37:07;;;;;;;7.10;1.70;;;;;;;10.08;75.42;100751.98;104277;1281;62131;-76
2022/09/04 00:40:16;;;;;;;7.20;1.70;;;;;;;10.05;75.18;100755.16;104341;1281;70526;-75
2022/09/04 00:43:31;;;;;;;6.10;1.60;;;;;;;10.05;75.64;100754.08;104661;1281;69345;-78
2022/09/04 00:47:06;;;;;;;5.20;1.40;;;;;;;10.04;75.54;100752.39;105111;1274;73543;-76
2022/09/04 00:50:13;;;;;;;6.80;1.50;;;;;;;10.03;75.96;100754.59;105268;1274;59203;-78
2022/09/04 00:53:13;;;;;;;6.30;1.50;;;;;;;10.07;75.72;100752.94;105031;1275;62058;-76
2022/09/04 00:56:30;;;;;;;7.40;1.60;;;;;;;10.12;75.55;100753.32;104947;1274;71687;-75
2022/09/04 00:59:53;;;;;;;5.30;1.70;;;;;;;10.16;75.90;100758.13;104916;1274;68134;-77
2022/09/04 01:03:05;;;;;;;5.60;1.70;;;;;;;10.13;75.91;100757.63;104595;1280;74742;-78
2022/09/04 01:06:31;;;;;;;5.30;1.60;;;;;;;10.10;76.35;100756.10;104479;1281;60247;-78
2022/09/04 01:09:50;;;;;;;6.10;1.70;;;;;;;10.04;76.51;100756.80;104631;1280;61061;-76
2022/09/04 01:13:07;;;;;;;7.50;1.70;;;;;;;9.96;76.69;100759.66;104622;1280;70878;-75
2022/09/04 01:16:34;;;;;;;5.60;1.80;;;;;;;9.86;77.36;100765.94;104382;1281;68146;-78
2022/09/04 01:20:05;;;;;;;6.50;1.70;;;;;;;9.73;77.25;100767.80;104432;1279;72873;-78
2022/09/04 01:23:35;;;;;;;6.80;2.00;;;;;;;9.62;78.03;100767.65;104368;1279;59498;-76
2022/09/04 01:26:48;;;;;;;5.80;1.70;;;;;;;9.50;78.47;100768.71;104401;1280;59623;-77
2022/09/04 01:30:10;;;;;;;6.80;1.40;;;;;;;9.40;78.82;100768.08;104337;1281;72170;-76
2022/09/04 01:33:42;;;;;;;7.70;1.80;;;;;;;9.35;79.31;100767.88;104677;1281;65640;-77
2022/09/04 01:37:20;;;;;;;6.50;1.80;;;;;;;9.33;79.61;100767.98;104383;1281;74536;-77
2022/09/04 01:40:41;;;;;;;7.40;2.00;;;;;;;9.33;79.38;100775.04;104658;1274;59377;-77
2022/09/04 01:43:31;;;;;;;6.00;1.70;;;;;;;9.27;79.39;100772.95;104937;1273;59393;-77
2022/09/04 01:46:41;;;;;;;6.30;1.60;;;;;;;9.19;79.56;100777.66;104886;1274;73963;-78
2022/09/04 01:49:42;;;;;;;6.90;2.00;;;;;;;9.10;79.97;100775.40;105063;1274;67908;-77
2022/09/04 01:53:08;;;;;;;5.80;1.80;;;;;;;8.99;80.52;100773.00;105236;1274;72751;-78
2022/09/04 01:56:12;;;;;;;5.60;1.90;;;;;;;8.88;80.90;100777.03;105045;1274;60264;-77
2022/09/04 01:59:23;;;;;;;5.80;1.40;;;;;;;8.78;80.87;100778.31;104989;1274;59298;-78
2022/09/04 02:03:03;;;;;;;5.40;1.60;;;;;;;8.69;81.57;100774.44;104566;1280;73867;-77
2022/09/04 02:06:13;;;;;;;6.10;1.70;;;;;;;8.61;81.87;100773.48;103611;1290;66557;-76
2022/09/04 02:09:18;;;;;;;5.80;1.70;;;;;;;8.54;82.57;100774.59;103632;1290;73378;-74
2022/09/04 02:12:36;;;;;;;7.10;2.00;;;;;;;8.48;82.64;100775.13;103300;1290;59831;-74
2022/09/04 02:15:43;;;;;;;6.70;1.70;;;;;;;8.42;83.02;100776.33;103416;1290;59349;-76
2022/09/04 02:19:16;;;;;;;5.60;1.80;;;;;;;8.34;83.08;100780.30;103733;1288;73737;-77
2022/09/04 02:22:32;;;;;;;6.90;1.70;;;;;;;8.25;83.59;100770.94;103543;1290;66974;-77
2022/09/04 02:26:01;;;;;;;7.10;1.80;;;;;;;8.18;83.79;100775.19;103817;1289;74398;-76
2022/09/04 02:29:22;;;;;;;6.80;2.20;;;;;;;8.12;84.08;100770.78;103483;1289;61365;-76
2022/09/04 02:32:24;;;;;;;6.40;1.70;;;;;;;8.08;84.44;100771.89;103443;1290;59601;-78
2022/09/04 02:35:56;;;;;;;8.30;2.00;;;;;;;8.03;84.51;100769.33;103657;1290;72843;-77
2022/09/04 02:39:00;;;;;;;6.10;2.10;;;;;;;7.96;84.70;100769.52;104150;1287;68432;-77
2022/09/04 02:42:02;;;;;;;6.00;2.10;;;;;;;7.91;85.09;100772.30;104894;1274;74302;-77
2022/09/04 02:45:07;;;;;;;8.60;2.30;;;;;;;7.85;85.27;100776.67;105034;1274;59313;-76
2022/09/04 02:48:16;;;;;;;7.10;1.90;;;;;;;7.79;85.63;100773.63;105253;1274;60517;-78
2022/09/04 02:51:19;;;;;;;6.60;1.80;;;;;;;7.74;85.67;100776.90;104985;1274;72581;-78
2022/09/04 02:54:24;;;;;;;7.30;1.90;;;;;;;7.71;86.39;100778.64;105075;1274;68042;-77
2022/09/04 02:57:38;;;;;;;6.30;1.70;;;;;;;7.68;86.39;100779.37;105045;1274;72800;-77
2022/09/04 03:01:02;;;;;;;6.50;2.00;;;;;;;7.65;86.60;100781.65;104893;1274;59317;-76
2022/09/04 03:04:26;;;;;;;5.70;2.00;;;;;;;7.60;86.83;100780.86;105228;1274;60500;-79
2022/09/04 03:08:22;;;;;;;8.10;2.20;;;;;;;7.56;87.32;100780.71;105365;1274;71182;-76
2022/09/04 03:11:34;;;;;;;7.10;1.90;;;;;;;7.49;87.24;100779.46;105049;1274;68037;-76
2022/09/04 03:15:03;;;;;;;8.00;1.90;;;;;;;7.46;87.48;100779.29;105075;1273;72856;-77
2022/09/04 03:17:54;;;;;;;7.50;2.00;;;;;;;7.43;87.55;100773.80;104277;1281;60427;-78
2022/09/04 03:20:48;;;;;;;6.20;1.90;;;;;;;7.41;87.80;100772.88;104303;1281;61087;-76
2022/09/04 03:23:53;;;;;;;6.40;2.20;;;;;;;7.39;87.71;100775.10;104430;1282;71923;-76
2022/09/04 03:26:52;;;;;;;8.10;2.40;;;;;;;7.36;87.92;100781.04;104700;1282;66714;-79
2022/09/04 03:30:09;;;;;;;8.10;2.20;;;;;;;7.34;88.05;100781.17;104130;1283;71461;-80
2022/09/04 03:33:32;;;;;;;8.10;2.40;;;;;;;7.31;87.66;100782.05;104255;1284;59243;-82
2022/09/04 03:36:44;;;;;;;8.20;2.70;;;;;;;7.27;88.18;100784.19;104198;1282;60347;-81
2022/09/04 03:40:28;;;;;;;7.10;2.30;;;;;;;7.22;88.19;100789.54;104283;1282;72632;-80
2022/09/04 03:44:07;;;;;;;7.70;2.70;;;;;;;7.20;88.35;100789.65;104231;1282;67844;-81
2022/09/04 03:47:23;;;;;;;6.60;1.90;;;;;;;7.19;88.64;100793.42;103683;1288;71327;-81
2022/09/04 03:50:31;;;;;;;6.90;2.10;;;;;;;7.19;88.92;100791.66;103771;1288;59752;-80
2022/09/04 03:53:52;;;;;;;6.80;2.20;;;;;;;7.18;88.92;100793.67;103431;1287;60306;-84
2022/09/04 03:57:18;;;;;;;6.40;2.30;;;;;;;7.18;89.20;100800.02;104375;1284;72218;-82
2022/09/04 04:00:17;;;;;;;7.40;2.40;;;;;;;7.14;89.00;100800.00;104672;1284;68103;-83
2022/09/04 04:03:08;;;;;;;7.10;2.50;;;;;;;7.13;89.21;100802.71;103947;1284;72969;-81
2022/09/04 04:06:31;;;;;;;9.70;2.60;;;;;;;7.12;89.00;100804.16;104196;1284;60272;-80
2022/09/04 04:09:52;;;;;;;6.80;1.90;;;;;;;7.11;89.19;100808.64;104305;1284;61885;-83
2022/09/04 04:13:09;;;;;;;9.30;2.30;;;;;;;7.12;89.09;100813.36;104324;1284;74272;-82
2022/09/04 04:16:21;;;;;;;7.80;2.40;;;;;;;7.15;89.07;100821.13;104512;1284;69911;-84
2022/09/04 04:19:35;;;;;;;8.00;2.10;;;;;;;7.18;89.12;100827.91;104185;1284;73410;-81
2022/09/04 04:23:16;;;;;;;6.90;2.40;;;;;;;7.20;88.93;100829.40;104369;1277;59943;-82
2022/09/04 04:26:13;;;;;;;7.60;2.30;;;;;;;7.20;88.81;100832.40;104974;1274;62241;-83
2022/09/04 04:29:52;;;;;;;7.20;2.20;;;;;;;7.21;88.98;100834.10;105211;1273;74526;-82
2022/09/04 04:32:57;;;;;;;8.50;2.10;;;;;;;7.23;89.02;100838.04;105100;1273;69664;-79
2022/09/04 04:35:53;;;;;;;6.60;2.50;;;;;;;7.27;89.10;100837.83;105160;1273;74444;-81
2022/09/04 04:39:10;;;;;;;7.50;2.30;;;;;;;7.31;89.34;100835.31;104990;1273;59297;-82
2022/09/04 04:42:22;;;;;;;7.50;2.20;;;;;;;7.40;89.31;100837.02;104817;1274;60287;-80
2022/09/04 04:49:09;;;;;;;7.70;2.30;;;;;;;7.53;89.22;100841.25;105057;1273;69206;-80
2022/09/04 04:52:09;;;;;;;9.00;2.60;;;;;;;7.58;88.98;100838.36;104946;1273;74813;-82
2022/09/04 04:55:29;;;;;;;8.30;2.60;;;;;;;7.63;88.98;100840.02;105721;1273;59339;-82
2022/09/04 04:58:31;;;;;;;8.10;2.30;;;;;;;7.69;88.97;100847.29;105062;1273;59427;-81
2022/09/04 05:02:06;;;;;;;6.60;2.00;;;;;;;7.78;88.96;100848.08;105579;1273;70641;-80
2022/09/04 05:05:22;;;;;;;8.20;2.20;;;;;;;7.88;88.71;100848.77;105035;1273;68060;-80
2022/09/04 05:08:33;;;;;;;8.00;2.50;;;;;;;7.97;88.92;100850.26;105029;1274;73140;-83
2022/09/04 05:12:05;;;;;;;9.00;2.20;;;;;;;8.07;89.16;100850.93;105219;1273;59873;-81
2022/09/04 05:15:25;;;;;;;6.80;2.20;;;;;;;8.19;89.01;100853.27;105192;1273;59867;-81
2022/09/04 05:18:30;;;;;;;6.80;1.90;;;;;;;8.31;88.69;100860.06;104985;1274;72962;-83
2022/09/04 05:21:24;;;;;;;8.10;2.40;;;;;;;8.43;88.63;100862.22;106011;1276;67984;-81
2022/09/04 05:24:55;;;;;;;8.40;2.20;;;;;;;8.56;88.24;100863.27;105284;1275;72898;-83
2022/09/04 05:27:56;;;;;;;9.40;2.50;;;;;;;8.74;87.88;100865.09;105144;1274;58871;-82
2022/09/04 05:31:29;;;;;;;8.30;2.40;;;;;;;8.90;87.27;100862.23;105400;1275;61432;-81
2022/09/04 05:34:37;;;;;;;8.70;2.80;;;;;;;9.10;86.25;100860.86;104496;1280;73951;-83
2022/09/04 05:37:43;;;;;;;9.40;3.60;;;;;;;9.31;85.47;100856.11;104821;1281;67008;-82
2022/09/04 05:40:53;;;;;;;8.90;2.90;;;;;;;9.50;85.03;100854.23;104774;1281;74551;-82
2022/09/04 05:44:28;;;;;;;8.30;2.80;;;;;;;9.70;84.03;100854.83;104722;1281;60342;-80
2022/09/04 05:47:16;;;;;;;9.60;2.80;;;;;;;9.97;83.53;100852.80;104795;1281;61276;-79
2022/09/04 05:50:38;;;;;;;9.60;2.00;;;;;;;10.21;82.77;100859.30;104434;1281;72230;-80
2022/09/04 05:53:33;;;;;;;8.70;2.00;;;;;;;10.54;80.70;100858.42;104507;1280;66644;-79
2022/09/04 05:56:24;;;;;;;6.30;2.00;;;;;;;10.83;79.34;100863.29;104277;1281;72645;-80
2022/09/04 06:00:19;;;;;;;7.00;1.80;;;;;;;11.11;77.92;100859.50;104709;1280;59540;-81
2022/09/04 06:03:35;;;;;;;7.40;1.90;;;;;;;11.50;76.05;100866.27;104072;1287;59615;-80
2022/09/04 06:07:02;;;;;;;5.70;1.50;;;;;;;11.81;74.64;100865.02;103762;1288;72744;-80
2022/09/04 06:10:33;;;;;;;5.20;1.40;;;;;;;12.19;70.91;100866.67;103674;1288;69594;-82
2022/09/04 06:13:59;;;;;;;7.90;1.50;;;;;;;12.59;68.38;100867.81;104204;1284;73353;-80
2022/09/04 06:17:25;;;;;;;6.50;1.50;;;;;;;13.06;64.92;100868.27;104200;1283;59738;-80
2022/09/04 06:20:56;;;;;;;4.90;1.10;;;;;;;13.64;62.47;100860.71;104258;1284;61280;-79
2022/09/04 06:24:06;;;;;;;5.40;1.10;;;;;;;14.99;56.83;100861.08;104305;1284;71210;-82
2022/09/04 06:27:02;;;;;;;5.10;1.20;;;;;;;17.40;50.34;100856.89;104101;1284;66588;-78
2022/09/04 06:30:13;;;;;;;6.20;1.30;;;;;;;19.48;44.71;100852.38;104106;1284;72942;-83
2022/09/04 06:33:28;;;;;;;4.90;1.20;;;;;;;21.36;40.13;100853.53;103901;1284;59484;-81
2022/09/04 06:36:57;;;;;;;4.40;1.00;;;;;;;23.11;36.45;100846.89;104005;1284;60730;-80
2022/09/04 06:40:27;;;;;;;6.10;1.10;;;;;;;24.66;32.00;100847.54;104650;1274;74211;-82
2022/09/04 12:50:58;;;;;;;4.90;0.90;;;;;;;20.35;32.82;100971.29;101752;1312;601077;-77
2022/09/04 12:53:59;;;;;;;4.10;0.80;;;;;;;20.20;34.26;100975.65;103800;1287;59404;-80
2022/09/04 12:57:41;;;;;;;5.20;1.20;;;;;;;20.06;34.33;100975.02;104057;1287;60412;-80
2022/09/04 13:01:16;;;;;;;4.00;0.80;;;;;;;19.85;34.82;100976.83;105004;1277;70583;-78
2022/09/04 13:04:23;;;;;;;4.70;1.10;;;;;;;19.69;35.61;100973.81;103167;1281;1653347;-78
2022/09/04 13:07:35;;;;;;;5.10;0.90;;;;;;;19.64;36.98;100976.92;104343;1281;71572;-77
2022/09/04 13:10:59;;;;;;;4.30;1.10;;;;;;;19.47;37.01;100968.92;104259;1284;59434;-79
2022/09/04 13:14:24;;;;;;;4.30;1.00;;;;;;;19.42;37.07;100974.30;104243;1283;59373;-80
2022/09/04 13:17:23;;;;;;;5.00;1.00;;;;;;;19.42;36.46;100969.92;104550;1283;70347;-83
2022/09/04 13:20:29;;;;;;;4.60;1.10;;;;;;;19.37;36.84;100971.66;104457;1281;67828;-79
2022/09/04 13:23:45;;;;;;;5.80;1.30;;;;;;;19.34;37.61;100972.14;104338;1281;72427;-80
2022/09/04 13:26:56;;;;;;;4.90;1.10;;;;;;;19.29;37.45;100968.63;103783;1284;1003178;-80
2022/09/04 13:30:08;;;;;;;4.50;1.00;;;;;;;19.27;37.30;100974.52;104583;1281;60582;-80
2022/09/04 13:33:38;;;;;;;4.00;0.90;;;;;;;19.24;36.33;100974.45;104550;1281;71406;-79
2022/09/04 13:37:03;;;;;;;4.60;0.90;;;;;;;19.09;36.91;100974.88;104866;1281;69309;-81
2022/09/04 13:40:09;;;;;;;3.60;0.90;;;;;;;19.05;38.31;100972.77;104754;1280;71536;-82
2022/09/04 13:43:29;;;;;;;4.10;1.00;;;;;;;19.08;38.34;100973.75;104939;1277;59221;-80
2022/09/04 13:46:32;;;;;;;4.50;1.00;;;;;;;19.04;37.89;100973.91;104945;1278;60575;-80
2022/09/04 13:49:47;;;;;;;4.50;1.10;;;;;;;19.05;37.47;100973.31;104827;1281;70588;-79
2022/09/04 13:52:58;;;;;;;4.50;1.00;;;;;;;19.05;37.36;100975.10;104755;1280;68097;-80
2022/09/04 13:56:12;;;;;;;4.70;1.10;;;;;;;19.07;37.71;100978.52;104645;1278;71704;-81
2022/09/04 13:59:12;;;;;;;4.20;1.00;;;;;;;19.08;37.61;100974.12;104836;1279;59310;-81
2022/09/04 14:02:07;;;;;;;4.10;1.00;;;;;;;19.04;37.55;100974.45;104855;1281;59700;-81
2022/09/04 14:05:03;;;;;;;4.60;1.10;;;;;;;19.00;38.20;100972.82;104869;1281;70187;-80
2022/09/04 14:08:07;;;;;;;4.30;1.20;;;;;;;18.97;39.13;100975.18;104935;1278;68088;-80
2022/09/04 14:11:53;;;;;;;4.40;1.10;;;;;;;18.88;40.32;100981.98;104664;1277;73823;-79
2022/09/04 14:14:59;;;;;;;5.40;1.00;;;;;;;18.87;40.77;100978.83;104786;1277;59311;-81
2022/09/04 14:18:12;;;;;;;3.00;0.70;;;;;;;18.85;39.82;100980.41;104695;1277;60529;-82
2022/09/04 14:21:16;;;;;;;3.30;0.90;;;;;;;18.82;39.11;100974.61;104837;1277;71385;-82
2022/09/04 14:24:23;;;;;;;4.40;0.80;;;;;;;18.77;39.50;100976.19;104903;1277;68636;-80
2022/09/04 14:27:37;;;;;;;4.10;0.90;;;;;;;18.64;40.11;100982.32;105046;1277;74930;-80
2022/09/04 14:30:44;;;;;;;4.00;1.00;;;;;;;18.60;41.25;100981.42;105030;1277;59379;-79
2022/09/04 14:34:04;;;;;;;4.50;1.10;;;;;;;18.55;42.13;100982.24;105110;1277;62050;-79
2022/09/04 14:37:41;;;;;;;3.50;0.80;;;;;;;18.47;42.58;100980.52;104856;1277;71683;-79
2022/09/04 14:40:41;;;;;;;3.30;0.80;;;;;;;18.40;42.98;100983.51;104948;1276;66732;-80
2022/09/04 14:44:02;;;;;;;3.90;1.10;;;;;;;18.32;43.90;100982.80;104967;1277;73653;-81
2022/09/04 14:47:10;;;;;;;4.20;1.00;;;;;;;18.26;44.11;100986.33;104968;1277;59271;-79
2022/09/04 14:50:00;;;;;;;5.70;1.00;;;;;;;18.20;44.53;100986.51;104967;1274;59554;-81
2022/09/04 14:52:55;;;;;;;4.40;1.10;;;;;;;18.10;44.39;100987.66;104931;1274;72129;-81
2022/09/04 14:56:10;;;;;;;4.00;1.00;;;;;;;18.09;44.78;100994.05;105009;1274;68003;-81
2022/09/04 14:59:33;;;;;;;4.00;1.00;;;;;;;18.10;44.96;100991.27;105176;1274;71593;-82
2022/09/04 15:02:34;;;;;;;5.00;1.20;;;;;;;18.12;45.14;100988.91;104882;1274;59412;-80
2022/09/04 15:05:23;;;;;;;4.20;1.00;;;;;;;18.12;44.67;100989.27;105036;1274;59429;-81
2022/09/04 15:08:25;;;;;;;4.00;1.00;;;;;;;18.15;45.09;100986.12;104879;1274;70653;-83
2022/09/04 15:11:33;;;;;;;5.20;1.30;;;;;;;18.16;45.57;100986.50;105291;1274;69406;-80
2022/09/04 15:14:27;;;;;;;4.80;1.20;;;;;;;18.15;45.49;100985.20;104939;1275;71832;-79
2022/09/04 15:17:27;;;;;;;4.10;1.10;;;;;;;18.11;45.59;100985.73;104968;1275;59304;-83
2022/09/04 15:20:27;;;;;;;5.00;1.30;;;;;;;18.10;45.84;100981.20;105023;1274;60586;-81
2022/09/04 15:23:29;;;;;;;4.70;1.20;;;;;;;18.03;46.02;100987.94;105412;1274;72916;-82
2022/09/04 15:26:27;;;;;;;4.70;1.30;;;;;;;18.00;46.36;100986.27;105320;1275;68029;-75
2022/09/04 15:29:25;;;;;;;4.80;1.20;;;;;;;17.94;47.06;100987.40;104901;1274;74366;-77
2022/09/04 15:32:23;;;;;;;5.70;1.20;;;;;;;17.88;47.34;100984.27;104826;1274;59314;-77
2022/09/04 15:35:16;;;;;;;4.60;1.10;;;;;;;17.80;47.51;100985.91;104767;1274;62200;-75
2022/09/04 15:38:20;;;;;;;5.00;1.00;;;;;;;17.67;47.86;100987.65;105271;1274;71671;-78
2022/09/04 15:41:48;;;;;;;5.60;1.00;;;;;;;17.53;48.04;100984.52;105076;1274;66996;-78
2022/09/04 15:44:46;;;;;;;4.20;1.10;;;;;;;17.41;48.14;100988.31;104425;1281;71848;-80
2022/09/04 15:48:05;;;;;;;4.50;1.10;;;;;;;17.32;48.32;100991.27;104626;1281;59385;-79
2022/09/04 15:51:11;;;;;;;6.20;1.30;;;;;;;17.24;48.69;100989.51;104339;1281;60258;-80
2022/09/04 15:54:28;;;;;;;4.40;0.90;;;;;;;17.16;48.63;100987.54;104406;1281;71712;-77
2022/09/04 15:57:45;;;;;;;5.20;1.00;;;;;;;17.09;49.02;100988.35;104445;1281;69010;-80
2022/09/04 16:00:59;;;;;;;6.40;1.80;;;;;;;17.03;49.20;100992.42;103811;1287;72885;-79
2022/09/04 16:03:51;;;;;;;6.40;2.40;;;;;;;16.98;49.50;100991.46;103853;1287;59318;-76
2022/09/04 16:06:53;;;;;;;6.30;2.40;;;;;;;16.91;49.35;100996.04;103752;1287;59530;-79
2022/09/04 16:10:00;;;;;;;4.90;1.30;;;;;;;16.83;49.71;100992.55;103825;1287;73055;-79
2022/09/04 16:13:08;;;;;;;5.20;1.30;;;;;;;16.75;49.86;100990.08;103770;1287;67891;-78
2022/09/04 16:16:10;;;;;;;5.00;0.90;;;;;;;16.65;49.98;100991.84;103962;1287;71322;-79
2022/09/04 16:19:56;;;;;;;4.90;1.20;;;;;;;16.54;50.35;100989.05;103908;1282;59279;-77
2022/09/04 16:22:48;;;;;;;4.40;1.00;;;;;;;16.42;50.68;100992.77;103865;1287;59511;-80
2022/09/04 16:25:41;;;;;;;6.00;1.10;;;;;;;16.35;51.07;100996.95;103789;1287;72994;-78
2022/09/04 16:28:39;;;;;;;5.10;1.00;;;;;;;16.26;50.99;101003.47;104062;1286;67442;-78
2022/09/04 16:31:34;;;;;;;5.10;1.20;;;;;;;16.16;51.11;101006.48;103996;1286;74546;-77
2022/09/04 16:34:23;;;;;;;5.00;1.10;;;;;;;16.06;51.21;101003.84;104244;1285;59254;-77
2022/09/04 16:37:38;;;;;;;5.20;1.20;;;;;;;15.93;51.45;101007.73;104324;1281;59321;-75
2022/09/04 16:40:35;;;;;;;4.70;1.20;;;;;;;15.77;52.15;101007.16;104618;1281;69676;-77
2022/09/04 16:43:33;;;;;;;5.60;1.30;;;;;;;15.64;52.58;101007.50;104402;1281;69976;-77
2022/09/04 16:46:28;;;;;;;4.50;1.20;;;;;;;15.54;52.82;101006.73;104830;1281;73100;-76
2022/09/04 16:49:39;;;;;;;4.40;1.00;;;;;;;15.44;53.14;101006.13;104507;1281;59377;-79
2022/09/04 16:53:09;;;;;;;4.00;0.90;;;;;;;15.31;53.58;101009.15;104373;1281;59581;-77
2022/09/04 16:56:11;;;;;;;4.00;1.20;;;;;;;15.17;54.54;101008.34;104505;1282;70435;-77
2022/09/04 16:59:30;;;;;;;5.10;1.10;;;;;;;15.05;55.08;101006.99;104728;1274;67161;-76
2022/09/04 17:02:40;;;;;;;4.60;1.10;;;;;;;14.92;55.72;101014.27;105147;1274;74519;-78
2022/09/04 17:05:48;;;;;;;4.40;1.10;;;;;;;14.80;56.06;101010.10;104986;1274;59268;-79
2022/09/04 17:08:58;;;;;;;5.20;0.90;;;;;;;14.68;56.65;101016.23;105071;1275;60534;-78
2022/09/04 17:12:00;;;;;;;6.20;2.10;;;;;;;14.56;57.06;101017.83;105224;1274;73541;-78
2022/09/04 17:15:00;;;;;;;4.60;1.00;;;;;;;14.45;57.20;101023.13;104903;1275;68226;-78
2022/09/04 17:17:52;;;;;;;5.30;1.00;;;;;;;14.35;58.01;101026.65;104884;1274;72602;-80
2022/09/04 17:20:57;;;;;;;3.60;0.80;;;;;;;14.23;58.33;101025.56;104980;1274;59462;-80
2022/09/04 17:24:40;;;;;;;4.40;1.10;;;;;;;14.13;58.70;101033.34;105001;1274;61147;-82
2022/09/04 17:27:56;;;;;;;4.40;1.10;;;;;;;14.01;59.05;101040.52;105461;1273;71660;-78
2022/09/04 17:31:16;;;;;;;5.50;1.40;;;;;;;13.89;59.51;101040.19;105386;1273;69469;-82
2022/09/04 17:34:18;;;;;;;5.60;1.30;;;;;;;13.79;59.72;101046.59;105116;1273;73404;-80
2022/09/04 17:38:03;;;;;;;5.00;1.20;;;;;;;13.69;60.59;101046.35;105304;1273;59671;-78
2022/09/04 17:41:56;;;;;;;4.70;1.00;;;;;;;13.57;60.51;101051.14;105146;1274;59389;-82
2022/09/04 17:45:33;;;;;;;5.00;1.30;;;;;;;13.46;60.91;101058.34;105215;1273;70702;-77
2022/09/04 17:48:38;;;;;;;4.70;1.20;;;;;;;13.36;61.06;101059.60;104933;1274;68635;-78
2022/09/04 17:51:32;;;;;;;4.60;1.20;;;;;;;13.28;61.54;101064.27;105345;1273;71697;-78
2022/09/04 17:54:23;;;;;;;5.60;1.20;;;;;;;13.19;61.20;101069.52;105016;1273;59291;-80
2022/09/04 17:57:45;;;;;;;4.20;1.00;;;;;;;13.10;61.46;101072.73;105011;1273;59418;-78
2022/09/04 18:01:34;;;;;;;4.40;1.20;;;;;;;13.00;61.74;101078.45;105373;1273;72344;-78
2022/09/04 18:04:52;;;;;;;4.50;1.30;;;;;;;12.87;62.13;101079.66;105047;1274;66780;-80
2022/09/04 18:08:12;;;;;;;5.80;1.50;;;;;;;12.79;62.42;101083.80;105152;1273;72945;-78
2022/09/04 18:11:32;;;;;;;6.10;1.30;;;;;;;12.70;62.82;101086.23;105056;1273;59330;-79
2022/09/04 18:14:41;;;;;;;5.10;1.20;;;;;;;12.60;62.82;101093.67;105027;1273;60964;-78
2022/09/04 18:17:43;;;;;;;8.10;1.60;;;;;;;12.51;63.07;101096.06;105273;1274;70902;-77
2022/09/04 18:20:46;;;;;;;5.60;1.80;;;;;;;12.44;63.54;101096.41;105114;1274;66851;-77
2022/09/04 18:24:48;;;;;;;5.10;1.40;;;;;;;12.36;63.79;101095.11;105116;1273;73001;-78
2022/09/04 18:28:08;;;;;;;5.60;1.20;;;;;;;12.28;64.62;101101.25;104488;1284;59371;-80
2022/09/04 18:31:46;;;;;;;5.60;1.30;;;;;;;12.21;65.06;101106.31;104421;1284;62272;-79
2022/09/04 18:35:13;;;;;;;5.40;1.50;;;;;;;12.16;64.83;101109.17;104350;1284;72473;-80
2022/09/04 18:38:40;;;;;;;5.10;1.40;;;;;;;12.10;65.30;101110.08;104291;1284;66509;-79
2022/09/04 18:41:35;;;;;;;7.00;1.60;;;;;;;12.05;65.84;101117.54;104356;1284;72684;-79
2022/09/04 18:44:48;;;;;;;7.50;1.60;;;;;;;12.00;65.93;101120.55;104194;1283;59516;-81
2022/09/04 18:48:00;;;;;;;7.70;1.40;;;;;;;11.95;66.77;101119.11;104042;1287;59524;-79
2022/09/04 18:51:28;;;;;;;6.50;1.50;;;;;;;11.91;66.88;101115.79;104034;1287;72624;-78
2022/09/04 18:54:38;;;;;;;6.30;1.40;;;;;;;11.87;67.10;101118.33;103863;1288;69959;-77
2022/09/04 18:57:48;;;;;;;7.20;1.70;;;;;;;11.85;67.62;101120.24;103960;1284;72845;-78
2022/09/04 19:01:03;;;;;;;6.30;1.90;;;;;;;11.85;67.56;101124.17;104574;1279;59850;-80
2022/09/04 19:04:28;;;;;;;5.50;1.60;;;;;;;11.86;67.99;101128.20;104534;1279;59483;-80
2022/09/04 19:07:35;;;;;;;7.70;1.80;;;;;;;11.85;67.94;101134.84;104550;1279;73433;-76
2022/09/04 19:11:03;;;;;;;6.50;1.90;;;;;;;11.84;68.46;101140.06;104668;1279;68073;-80
2022/09/04 19:14:37;;;;;;;6.50;1.80;;;;;;;11.80;68.62;101137.11;104203;1285;71553;-78
2022/09/04 19:17:37;;;;;;;6.60;1.80;;;;;;;11.76;68.92;101143.59;104322;1285;59416;-79
2022/09/04 19:20:47;;;;;;;6.50;1.90;;;;;;;11.71;68.55;101148.16;104545;1282;59679;-78
2022/09/04 19:24:19;;;;;;;8.30;2.20;;;;;;;11.67;69.31;101150.39;104176;1282;71293;-81
2022/09/04 19:27:08;;;;;;;6.90;1.90;;;;;;;11.63;69.98;101152.44;104790;1282;67111;-79
2022/09/04 19:30:19;;;;;;;6.60;2.30;;;;;;;11.59;69.63;101153.79;103785;1282;1003729;-78
2022/09/04 19:33:39;;;;;;;7.30;2.60;;;;;;;11.54;69.89;101157.30;104474;1282;59305;-76
2022/09/04 19:36:43;;;;;;;6.90;2.60;;;;;;;11.48;70.23;101161.95;104672;1282;59649;-79
2022/09/04 19:40:25;;;;;;;8.10;2.30;;;;;;;11.40;71.08;101159.59;104520;1282;72404;-76
2022/09/04 19:44:12;;;;;;;9.30;2.80;;;;;;;11.31;71.70;101161.63;104836;1281;70076;-78
2022/09/04 19:47:58;;;;;;;7.00;2.50;;;;;;;11.23;72.36;101163.30;104943;1274;74350;-81
2022/09/04 19:51:00;;;;;;;8.30;2.70;;;;;;;11.18;72.44;101166.34;104727;1279;59615;-77
2022/09/04 19:54:13;;;;;;;7.20;2.70;;;;;;;11.14;72.78;101171.02;104464;1281;60428;-78
2022/09/04 19:57:23;;;;;;;7.70;2.90;;;;;;;11.09;73.31;101170.23;104674;1279;72583;-76
2022/09/04 20:00:27;;;;;;;7.60;2.50;;;;;;;11.05;73.72;101172.64;104369;1282;65491;-80
2022/09/04 20:04:03;;;;;;;8.00;2.50;;;;;;;10.97;74.01;101171.50;104502;1279;72679;-80
2022/09/04 20:07:05;;;;;;;8.60;2.90;;;;;;;10.90;74.42;101174.62;104710;1277;59942;-79
2022/09/04 20:09:59;;;;;;;7.60;2.90;;;;;;;10.83;74.40;101178.95;104461;1278;59336;-77
2022/09/04 20:13:14;;;;;;;7.60;2.90;;;;;;;10.75;75.05;101177.67;104628;1278;71484;-77
2022/09/04 20:16:36;;;;;;;8.20;2.90;;;;;;;10.68;74.93;101177.36;104389;1277;68419;-77
2022/09/04 20:19:39;;;;;;;8.20;2.80;;;;;;;10.62;75.39;101176.67;104697;1279;72897;-76
2022/09/04 20:22:44;;;;;;;9.20;3.10;;;;;;;10.57;75.54;101179.60;104824;1273;59518;-78
2022/09/04 20:25:57;;;;;;;7.80;3.00;;;;;;;10.55;75.55;101179.40;104839;1273;61152;-76
2022/09/04 20:29:03;;;;;;;8.30;2.90;;;;;;;10.52;75.76;101181.51;104906;1273;73655;-77
2022/09/04 20:31:57;;;;;;;8.20;2.60;;;;;;;10.47;75.72;101182.13;104835;1271;67125;-76
2022/09/04 20:35:11;;;;;;;8.50;2.60;;;;;;;10.43;75.80;101183.85;105110;1273;71403;-78
2022/09/04 20:38:18;;;;;;;9.00;2.80;;;;;;;10.36;76.22;101186.87;104942;1273;61370;-78
2022/09/04 20:41:47;;;;;;;9.40;2.90;;;;;;;10.30;76.61;101189.50;104651;1273;59388;-77
2022/09/04 20:44:49;;;;;;;7.80;2.50;;;;;;;10.26;76.47;101192.94;104594;1281;72897;-75
2022/09/04 20:48:16;;;;;;;8.40;3.00;;;;;;;10.21;76.61;101192.49;104297;1281;68567;-76
2022/09/04 20:51:29;;;;;;;9.20;3.10;;;;;;;10.19;77.06;101196.35;104778;1280;72889;-75
2022/09/04 20:55:10;;;;;;;8.80;3.10;;;;;;;10.16;77.22;101192.45;104573;1279;59492;-77
2022/09/04 20:58:27;;;;;;;8.40;3.50;;;;;;;10.13;77.49;101192.98;104426;1279;60253;-75
2022/09/04 21:01:53;;;;;;;9.00;3.30;;;;;;;10.07;77.88;101195.66;104527;1279;72627;-76
2022/09/04 21:05:22;;;;;;;7.80;2.70;;;;;;;10.00;77.96;101195.46;104551;1279;68048;-77